Aérodrome :
LOGIN :

S'inscrire | Disclaimer

   EN    FR    IT 

 










Légende :    VFR   VFR Marginal   IFR   IFR Intensif   IFR Très Intensif
Visi : 
Plafond : 
>= 8 km
>= 3000ft
5 à 8 km
1000 à 3000 ft
1500m à 5 km
500 à 1000 ft
800 à 1500m
200 à 500 ft
< 800m
< 200 ft
Symboles :   Orages  Brouillard  Fortes neiges  Fortes précipitations  Vent > 20 kt
SIGMETs :   Divers  Orages  Givrage  Turbulence  Onde Orograph.  Cendres Volcan.







- Altitude de l'aérodrome : 47 ft
- Code IATA : CBG
- Voir les cartes d'approche


EGSC - Cambridge

DERNIER METAR :
  • 281150Z 33007KT 290V010 9999 FEW030 BKN044 11/02 Q1016

METARs EXPIRÉS :
  • 281120Z 33008KT 9999 FEW030 BKN044 10/02 Q1017
  • 281050Z 33009KT 9999 FEW030 BKN044 10/03 Q1017
  • 281020Z 34008KT 310V010 9999 FEW025 BKN040 09/02 Q1017
  • 280950Z 33009KT 9999 FEW025 BKN034 09/03 Q1017
  • 280920Z 32010KT 9999 SCT026 09/03 Q1017

TAF TAF EGSC
Valide du 28 à 12h jusqu'au 28 à 19h UTC


281104Z 2812/2819 34006KT 9999 FEW030 SCT045
Pas de NOTAMs connus pour ce terrain.



MET'MAP, la Météo Aéronautique d'un coup d'oeil ! - Copyright ORBIFLY Décembre 2007 - Disclaimer

ORBIFLY MET'MAP TEAM :

Programmation & Développement : Alexandra Zaïnal
Conception & Développement : Baudouin d'Aumeries
Co-Programmation & Développement : Marc-Olivier Méhu
Soutien technique & logistique : Manuel Goepfert

Contact : metmap@orbifly.com




SOURCES & CREDITS :

   NOAA